sensor_id;sensor_type;location;lat;lon;timestamp;pressure;altitude;pressure_sealevel;temperature;humidity
33697;BME280;20031;43.416;23.232;2024-02-21T00:00:35;100807.44;;;7.99;85.25
33697;BME280;20031;43.416;23.232;2024-02-21T00:03:03;100801.69;;;7.95;85.17
33697;BME280;20031;43.416;23.232;2024-02-21T00:05:30;100809.47;;;7.95;85.22
33697;BME280;20031;43.416;23.232;2024-02-21T00:07:56;100808.91;;;7.92;85.08
33697;BME280;20031;43.416;23.232;2024-02-21T00:10:21;100797.94;;;7.88;85.02
33697;BME280;20031;43.416;23.232;2024-02-21T00:12:46;100799.47;;;7.91;85.43
33697;BME280;20031;43.416;23.232;2024-02-21T00:15:12;100804.41;;;7.94;85.37
33697;BME280;20031;43.416;23.232;2024-02-21T00:17:38;100806.41;;;7.90;85.18
33697;BME280;20031;43.416;23.232;2024-02-21T00:20:03;100805.97;;;7.85;85.46
33697;BME280;20031;43.416;23.232;2024-02-21T00:22:30;100801.72;;;7.84;85.57
33697;BME280;20031;43.416;23.232;2024-02-21T00:24:58;100808.06;;;7.80;85.26
33697;BME280;20031;43.416;23.232;2024-02-21T00:27:24;100801.53;;;7.76;85.48
33697;BME280;20031;43.416;23.232;2024-02-21T00:29:49;100804.09;;;7.76;85.11
33697;BME280;20031;43.416;23.232;2024-02-21T00:32:15;100800.91;;;7.73;85.47
33697;BME280;20031;43.416;23.232;2024-02-21T00:34:41;100795.03;;;7.71;85.64
33697;BME280;20031;43.416;23.232;2024-02-21T00:37:06;100801.97;;;7.70;85.39
33697;BME280;20031;43.416;23.232;2024-02-21T00:39:32;100805.53;;;7.69;85.53
33697;BME280;20031;43.416;23.232;2024-02-21T00:41:57;100786.81;;;7.66;85.39
33697;BME280;20031;43.416;23.232;2024-02-21T00:44:22;100787.03;;;7.63;85.27
33697;BME280;20031;43.416;23.232;2024-02-21T00:46:48;100793.66;;;7.56;85.13
33697;BME280;20031;43.416;23.232;2024-02-21T00:49:13;100788.84;;;7.52;85.20
33697;BME280;20031;43.416;23.232;2024-02-21T00:51:39;100779.66;;;7.48;84.98
33697;BME280;20031;43.416;23.232;2024-02-21T00:54:04;100778.28;;;7.44;85.27
33697;BME280;20031;43.416;23.232;2024-02-21T00:56:30;100779.91;;;7.45;85.28
33697;BME280;20031;43.416;23.232;2024-02-21T00:58:56;100774.72;;;7.45;85.07
33697;BME280;20031;43.416;23.232;2024-02-21T01:01:23;100771.44;;;7.43;85.26
33697;BME280;20031;43.416;23.232;2024-02-21T01:03:49;100775.81;;;7.42;85.01
33697;BME280;20031;43.416;23.232;2024-02-21T01:06:14;100771.06;;;7.47;84.74
33697;BME280;20031;43.416;23.232;2024-02-21T01:08:40;100768.34;;;7.49;84.57
33697;BME280;20031;43.416;23.232;2024-02-21T01:11:05;100763.31;;;7.47;84.29
33697;BME280;20031;43.416;23.232;2024-02-21T01:13:31;100764.00;;;7.49;84.26
33697;BME280;20031;43.416;23.232;2024-02-21T01:15:56;100753.63;;;7.49;83.98
33697;BME280;20031;43.416;23.232;2024-02-21T01:18:22;100759.66;;;7.50;83.54
33697;BME280;20031;43.416;23.232;2024-02-21T01:20:47;100761.41;;;7.49;83.16
33697;BME280;20031;43.416;23.232;2024-02-21T01:23:12;100757.06;;;7.50;83.63
33697;BME280;20031;43.416;23.232;2024-02-21T01:25:38;100758.81;;;7.49;83.32
33697;BME280;20031;43.416;23.232;2024-02-21T01:28:03;100755.41;;;7.49;83.22
33697;BME280;20031;43.416;23.232;2024-02-21T01:30:29;100754.59;;;7.48;83.07
33697;BME280;20031;43.416;23.232;2024-02-21T01:32:54;100752.94;;;7.47;82.84
33697;BME280;20031;43.416;23.232;2024-02-21T01:35:20;100748.81;;;7.45;82.75
33697;BME280;20031;43.416;23.232;2024-02-21T01:37:45;100744.72;;;7.42;82.77
33697;BME280;20031;43.416;23.232;2024-02-21T01:40:11;100745.66;;;7.41;83.07
33697;BME280;20031;43.416;23.232;2024-02-21T01:42:40;100742.13;;;7.42;82.68
33697;BME280;20031;43.416;23.232;2024-02-21T01:45:08;100742.25;;;7.41;82.59
33697;BME280;20031;43.416;23.232;2024-02-21T01:47:35;100744.13;;;7.39;83.18
33697;BME280;20031;43.416;23.232;2024-02-21T01:50:01;100738.50;;;7.34;82.36
33697;BME280;20031;43.416;23.232;2024-02-21T01:52:28;100737.78;;;7.32;82.23
33697;BME280;20031;43.416;23.232;2024-02-21T01:54:54;100738.25;;;7.26;82.21
33697;BME280;20031;43.416;23.232;2024-02-21T01:57:20;100732.53;;;7.22;82.38
33697;BME280;20031;43.416;23.232;2024-02-21T01:59:45;100736.16;;;7.20;82.44
33697;BME280;20031;43.416;23.232;2024-02-21T02:02:11;100727.91;;;7.15;82.47
33697;BME280;20031;43.416;23.232;2024-02-21T02:04:38;100729.81;;;7.13;82.66
33697;BME280;20031;43.416;23.232;2024-02-21T02:07:06;100730.19;;;7.09;83.16
33697;BME280;20031;43.416;23.232;2024-02-21T02:09:32;100729.47;;;7.07;83.07
33697;BME280;20031;43.416;23.232;2024-02-21T02:11:57;100729.56;;;7.05;83.28
33697;BME280;20031;43.416;23.232;2024-02-21T02:14:25;100726.31;;;7.03;83.46
33697;BME280;20031;43.416;23.232;2024-02-21T02:16:50;100721.38;;;7.00;83.65
33697;BME280;20031;43.416;23.232;2024-02-21T02:19:16;100725.69;;;7.00;83.81
33697;BME280;20031;43.416;23.232;2024-02-21T02:21:46;100715.59;;;6.97;83.81
33697;BME280;20031;43.416;23.232;2024-02-21T02:24:19;100719.38;;;6.93;84.17
33697;BME280;20031;43.416;23.232;2024-02-21T02:26:45;100715.25;;;6.90;84.17
33697;BME280;20031;43.416;23.232;2024-02-21T02:29:10;100717.97;;;6.89;84.50
33697;BME280;20031;43.416;23.232;2024-02-21T02:31:36;100722.28;;;6.88;84.46
33697;BME280;20031;43.416;23.232;2024-02-21T02:34:03;100725.84;;;6.87;84.68
33697;BME280;20031;43.416;23.232;2024-02-21T02:36:31;100722.53;;;6.85;84.53
33697;BME280;20031;43.416;23.232;2024-02-21T02:38:56;100715.75;;;6.84;84.75
33697;BME280;20031;43.416;23.232;2024-02-21T02:41:22;100718.69;;;6.80;84.43
33697;BME280;20031;43.416;23.232;2024-02-21T02:43:47;100718.91;;;6.77;84.77
33697;BME280;20031;43.416;23.232;2024-02-21T02:46:13;100724.06;;;6.77;85.08
33697;BME280;20031;43.416;23.232;2024-02-21T02:48:38;100713.97;;;6.74;85.04
33697;BME280;20031;43.416;23.232;2024-02-21T02:51:04;100724.31;;;6.74;84.80
33697;BME280;20031;43.416;23.232;2024-02-21T02:53:29;100725.16;;;6.74;85.07
33697;BME280;20031;43.416;23.232;2024-02-21T02:55:54;100724.31;;;6.74;85.08
33697;BME280;20031;43.416;23.232;2024-02-21T02:58:20;100720.44;;;6.68;84.86
33697;BME280;20031;43.416;23.232;2024-02-21T03:00:46;100720.78;;;6.64;84.95
33697;BME280;20031;43.416;23.232;2024-02-21T03:03:11;100725.50;;;6.59;85.33
33697;BME280;20031;43.416;23.232;2024-02-21T03:05:37;100723.03;;;6.58;85.93
33697;BME280;20031;43.416;23.232;2024-02-21T03:08:02;100726.31;;;6.59;85.16
33697;BME280;20031;43.416;23.232;2024-02-21T03:10:34;100722.19;;;6.57;85.64
33697;BME280;20031;43.416;23.232;2024-02-21T03:13:00;100725.50;;;6.59;85.90
33697;BME280;20031;43.416;23.232;2024-02-21T03:15:25;100731.50;;;6.59;86.34
33697;BME280;20031;43.416;23.232;2024-02-21T03:17:51;100732.34;;;6.60;86.21
33697;BME280;20031;43.416;23.232;2024-02-21T03:20:16;100732.34;;;6.60;86.04
33697;BME280;20031;43.416;23.232;2024-02-21T03:22:42;100727.97;;;6.60;86.06
33697;BME280;20031;43.416;23.232;2024-02-21T03:25:10;100742.56;;;6.61;86.30
33697;BME280;20031;43.416;23.232;2024-02-21T03:27:36;100738.31;;;6.60;86.15
33697;BME280;20031;43.416;23.232;2024-02-21T03:30:02;100733.16;;;6.60;85.84
33697;BME280;20031;43.416;23.232;2024-02-21T03:32:29;100738.19;;;6.62;86.06
33697;BME280;20031;43.416;23.232;2024-02-21T03:34:55;100740.09;;;6.60;86.05
33697;BME280;20031;43.416;23.232;2024-02-21T03:37:20;100738.44;;;6.59;85.61
33697;BME280;20031;43.416;23.232;2024-02-21T03:39:45;100738.56;;;6.58;86.11
33697;BME280;20031;43.416;23.232;2024-02-21T03:42:11;100731.03;;;6.55;85.55
33697;BME280;20031;43.416;23.232;2024-02-21T03:44:37;100735.84;;;6.48;85.21
33697;BME280;20031;43.416;23.232;2024-02-21T03:47:02;100738.66;;;6.45;85.90
33697;BME280;20031;43.416;23.232;2024-02-21T03:49:28;100740.56;;;6.43;85.52
33697;BME280;20031;43.416;23.232;2024-02-21T03:51:54;100744.19;;;6.41;85.59
33697;BME280;20031;43.416;23.232;2024-02-21T03:54:19;100738.28;;;6.39;85.41
33697;BME280;20031;43.416;23.232;2024-02-21T03:56:45;100740.97;;;6.37;85.60
33697;BME280;20031;43.416;23.232;2024-02-21T03:59:13;100736.88;;;6.35;85.31
33697;BME280;20031;43.416;23.232;2024-02-21T04:01:38;100737.81;;;6.34;85.91
33697;BME280;20031;43.416;23.232;2024-02-21T04:04:04;100743.00;;;6.34;85.93
33697;BME280;20031;43.416;23.232;2024-02-21T04:06:29;100740.53;;;6.32;85.88
33697;BME280;20031;43.416;23.232;2024-02-21T04:08:55;100739.47;;;6.35;85.76
33697;BME280;20031;43.416;23.232;2024-02-21T04:11:20;100742.06;;;6.35;85.81
33697;BME280;20031;43.416;23.232;2024-02-21T04:13:46;100738.75;;;6.33;85.37
33697;BME280;20031;43.416;23.232;2024-02-21T04:16:14;100741.44;;;6.31;85.61
33697;BME280;20031;43.416;23.232;2024-02-21T04:18:39;100734.66;;;6.30;85.65
33697;BME280;20031;43.416;23.232;2024-02-21T04:21:05;100732.06;;;6.30;85.12
33697;BME280;20031;43.416;23.232;2024-02-21T04:23:30;100738.88;;;6.31;85.56
33697;BME280;20031;43.416;23.232;2024-02-21T04:25:56;100738.88;;;6.31;85.51
33697;BME280;20031;43.416;23.232;2024-02-21T04:28:21;100736.03;;;6.34;85.80
33697;BME280;20031;43.416;23.232;2024-02-21T04:30:47;100734.53;;;6.32;86.04
33697;BME280;20031;43.416;23.232;2024-02-21T04:33:12;100737.34;;;6.29;85.71
33697;BME280;20031;43.416;23.232;2024-02-21T04:35:37;100736.63;;;6.27;85.85
33697;BME280;20031;43.416;23.232;2024-02-21T04:38:04;100743.56;;;6.26;85.74
33697;BME280;20031;43.416;23.232;2024-02-21T04:40:29;100740.13;;;6.26;85.59
33697;BME280;20031;43.416;23.232;2024-02-21T04:42:56;100739.56;;;6.22;85.91
33697;BME280;20031;43.416;23.232;2024-02-21T04:45:22;100738.03;;;6.20;85.73
33697;BME280;20031;43.416;23.232;2024-02-21T04:47:47;100739.91;;;6.18;85.51
33697;BME280;20031;43.416;23.232;2024-02-21T04:50:13;100743.66;;;6.14;85.72
33697;BME280;20031;43.416;23.232;2024-02-21T04:52:38;100734.34;;;6.11;85.77
33697;BME280;20031;43.416;23.232;2024-02-21T04:55:04;100740.59;;;6.09;85.59
33697;BME280;20031;43.416;23.232;2024-02-21T04:57:29;100743.84;;;6.00;85.40
33697;BME280;20031;43.416;23.232;2024-02-21T04:59:54;100742.75;;;5.92;85.75
33697;BME280;20031;43.416;23.232;2024-02-21T05:02:20;100751.66;;;5.88;85.90
33697;BME280;20031;43.416;23.232;2024-02-21T05:04:47;100746.94;;;5.82;85.75
33697;BME280;20031;43.416;23.232;2024-02-21T05:07:13;100745.31;;;5.81;86.17
33697;BME280;20031;43.416;23.232;2024-02-21T05:09:38;100745.31;;;5.81;86.36
33697;BME280;20031;43.416;23.232;2024-02-21T05:12:04;100752.97;;;5.82;85.89
33697;BME280;20031;43.416;23.232;2024-02-21T05:14:29;100753.88;;;5.81;86.01
33697;BME280;20031;43.416;23.232;2024-02-21T05:16:55;100747.78;;;5.82;86.39
33697;BME280;20031;43.416;23.232;2024-02-21T05:19:21;100751.06;;;5.84;86.22
33697;BME280;20031;43.416;23.232;2024-02-21T05:21:46;100749.94;;;5.88;86.22
33697;BME280;20031;43.416;23.232;2024-02-21T05:24:12;100754.88;;;5.91;86.06
33697;BME280;20031;43.416;23.232;2024-02-21T05:26:37;100756.75;;;5.89;86.09
33697;BME280;20031;43.416;23.232;2024-02-21T05:29:03;100758.38;;;5.90;85.79
33697;BME280;20031;43.416;23.232;2024-02-21T05:34:17;100763.44;;;5.92;85.53
33697;BME280;20031;43.416;23.232;2024-02-21T05:36:42;100758.59;;;5.87;85.29
33697;BME280;20031;43.416;23.232;2024-02-21T05:39:08;100762.34;;;5.83;85.47
33697;BME280;20031;43.416;23.232;2024-02-21T05:41:33;100768.25;;;5.85;85.53
33697;BME280;20031;43.416;23.232;2024-02-21T05:43:59;100767.28;;;5.86;85.60
33697;BME280;20031;43.416;23.232;2024-02-21T05:46:24;100765.66;;;5.85;85.14
33697;BME280;20031;43.416;23.232;2024-02-21T05:48:50;100766.59;;;5.84;85.26
33697;BME280;20031;43.416;23.232;2024-02-21T05:51:15;100764.50;;;5.89;85.32
33697;BME280;20031;43.416;23.232;2024-02-21T05:53:41;100772.97;;;5.91;85.46
33697;BME280;20031;43.416;23.232;2024-02-21T05:56:13;100775.09;;;5.97;85.05
33697;BME280;20031;43.416;23.232;2024-02-21T05:58:39;100772.28;;;6.00;85.17
33697;BME280;20031;43.416;23.232;2024-02-21T06:01:05;100782.16;;;6.06;84.90
33697;BME280;20031;43.416;23.232;2024-02-21T06:03:35;100788.53;;;6.13;84.47
33697;BME280;20031;43.416;23.232;2024-02-21T06:06:03;100788.00;;;6.20;84.88
33697;BME280;20031;43.416;23.232;2024-02-21T06:08:30;100787.53;;;6.26;84.64
33697;BME280;20031;43.416;23.232;2024-02-21T06:10:55;100790.00;;;6.28;83.99
33697;BME280;20031;43.416;23.232;2024-02-21T06:13:21;100791.56;;;6.30;83.77
33697;BME280;20031;43.416;23.232;2024-02-21T06:15:47;100796.50;;;6.33;83.81
33697;BME280;20031;43.416;23.232;2024-02-21T06:18:13;100796.16;;;6.38;83.76
33697;BME280;20031;43.416;23.232;2024-02-21T06:20:38;100801.78;;;6.43;83.47
33697;BME280;20031;43.416;23.232;2024-02-21T06:23:06;100795.22;;;6.50;83.83
33697;BME280;20031;43.416;23.232;2024-02-21T06:25:31;100789.69;;;6.54;82.94
33697;BME280;20031;43.416;23.232;2024-02-21T06:27:57;100793.72;;;6.58;82.90
33697;BME280;20031;43.416;23.232;2024-02-21T06:30:22;100797.72;;;6.62;82.52
33697;BME280;20031;43.416;23.232;2024-02-21T06:32:48;100797.16;;;6.80;82.67
33697;BME280;20031;43.416;23.232;2024-02-21T06:35:13;100800.91;;;7.09;83.09
33697;BME280;20031;43.416;23.232;2024-02-21T06:37:38;100799.50;;;7.16;82.00
33697;BME280;20031;43.416;23.232;2024-02-21T06:40:05;100797.59;;;7.40;81.68
33697;BME280;20031;43.416;23.232;2024-02-21T06:42:30;100791.56;;;7.50;80.70
33697;BME280;20031;43.416;23.232;2024-02-21T06:44:56;100790.09;;;7.68;80.49
33697;BME280;20031;43.416;23.232;2024-02-21T06:47:21;100788.47;;;7.98;80.46
33697;BME280;20031;43.416;23.232;2024-02-21T06:49:50;100780.25;;;8.24;79.71
33697;BME280;20031;43.416;23.232;2024-02-21T06:52:20;100781.34;;;8.31;78.25
33697;BME280;20031;43.416;23.232;2024-02-21T06:54:46;100786.31;;;8.55;77.95
33697;BME280;20031;43.416;23.232;2024-02-21T06:57:12;100780.94;;;8.76;77.07
33697;BME280;20031;43.416;23.232;2024-02-21T06:59:39;100779.94;;;8.88;75.76
33697;BME280;20031;43.416;23.232;2024-02-21T07:02:05;100779.94;;;8.88;75.12
33697;BME280;20031;43.416;23.232;2024-02-21T07:04:30;100788.13;;;8.84;73.67
33697;BME280;20031;43.416;23.232;2024-02-21T07:06:56;100781.78;;;9.07;74.59
33697;BME280;20031;43.416;23.232;2024-02-21T07:09:21;100777.34;;;9.37;74.17
33697;BME280;20031;43.416;23.232;2024-02-21T07:11:47;100771.38;;;9.55;73.62
33697;BME280;20031;43.416;23.232;2024-02-21T07:14:14;100773.59;;;9.88;72.76
33697;BME280;20031;43.416;23.232;2024-02-21T07:16:40;100773.91;;;10.13;72.05
33697;BME280;20031;43.416;23.232;2024-02-21T07:19:05;100769.63;;;10.31;71.34
33697;BME280;20031;43.416;23.232;2024-02-21T07:21:31;100763.97;;;10.45;70.39
33697;BME280;20031;43.416;23.232;2024-02-21T07:23:56;100762.88;;;10.57;69.22
33697;BME280;20031;43.416;23.232;2024-02-21T07:26:22;100768.19;;;10.65;68.40
33697;BME280;20031;43.416;23.232;2024-02-21T07:28:47;100770.78;;;10.74;68.07
33697;BME280;20031;43.416;23.232;2024-02-21T07:31:13;100775.84;;;10.66;66.53
33697;BME280;20031;43.416;23.232;2024-02-21T07:33:38;100775.72;;;10.68;66.85
33697;BME280;20031;43.416;23.232;2024-02-21T07:36:07;100776.78;;;10.74;66.72
33697;BME280;20031;43.416;23.232;2024-02-21T07:38:33;100775.84;;;10.66;65.80
33697;BME280;20031;43.416;23.232;2024-02-21T07:40:59;100775.19;;;10.55;65.24
33697;BME280;20031;43.416;23.232;2024-02-21T07:43:24;100771.78;;;10.45;66.52
33697;BME280;20031;43.416;23.232;2024-02-21T07:45:51;100777.84;;;10.45;66.97
33697;BME280;20031;43.416;23.232;2024-02-21T07:48:18;100771.06;;;10.71;66.41
33697;BME280;20031;43.416;23.232;2024-02-21T07:50:44;100774.31;;;10.73;66.37
33697;BME280;20031;43.416;23.232;2024-02-21T07:53:10;100764.19;;;10.70;66.54
33697;BME280;20031;43.416;23.232;2024-02-21T07:55:35;100760.25;;;10.93;65.84
33697;BME280;20031;43.416;23.232;2024-02-21T07:58:00;100766.03;;;10.96;65.03
33697;BME280;20031;43.416;23.232;2024-02-21T08:00:26;100767.97;;;11.21;65.27
33697;BME280;20031;43.416;23.232;2024-02-21T08:02:51;100767.25;;;11.55;63.96
33697;BME280;20031;43.416;23.232;2024-02-21T08:05:17;100762.03;;;11.72;62.64
33697;BME280;20031;43.416;23.232;2024-02-21T08:07:43;100768.16;;;11.64;61.72
33697;BME280;20031;43.416;23.232;2024-02-21T08:10:09;100761.31;;;11.97;61.70
33697;BME280;20031;43.416;23.232;2024-02-21T08:12:34;100761.88;;;12.09;60.33
33697;BME280;20031;43.416;23.232;2024-02-21T08:15:00;100762.38;;;12.12;60.68
33697;BME280;20031;43.416;23.232;2024-02-21T08:17:26;100761.59;;;12.12;59.91
33697;BME280;20031;43.416;23.232;2024-02-21T08:19:51;100762.03;;;12.50;60.05
33697;BME280;20031;43.416;23.232;2024-02-21T08:22:16;100758.56;;;12.67;58.46
33697;BME280;20031;43.416;23.232;2024-02-21T08:24:42;100754.91;;;12.60;57.83
33697;BME280;20031;43.416;23.232;2024-02-21T08:27:07;100757.59;;;12.68;58.61
33697;BME280;20031;43.416;23.232;2024-02-21T08:29:33;100757.72;;;12.83;57.38
33697;BME280;20031;43.416;23.232;2024-02-21T08:31:58;100753.81;;;13.28;57.40
33697;BME280;20031;43.416;23.232;2024-02-21T08:34:24;100756.66;;;13.51;57.06
33697;BME280;20031;43.416;23.232;2024-02-21T08:36:49;100747.09;;;13.91;55.74
33697;BME280;20031;43.416;23.232;2024-02-21T08:39:15;100759.03;;;14.01;55.00
33697;BME280;20031;43.416;23.232;2024-02-21T08:41:43;100753.31;;;14.53;55.22
33697;BME280;20031;43.416;23.232;2024-02-21T08:44:09;100745.53;;;14.76;52.90
33697;BME280;20031;43.416;23.232;2024-02-21T08:46:34;100755.59;;;15.10;53.59
33697;BME280;20031;43.416;23.232;2024-02-21T08:49:03;100747.91;;;15.47;52.42
33697;BME280;20031;43.416;23.232;2024-02-21T08:51:28;100751.34;;;15.09;51.14
33697;BME280;20031;43.416;23.232;2024-02-21T08:53:54;100749.00;;;15.22;52.05
33697;BME280;20031;43.416;23.232;2024-02-21T08:56:20;100746.44;;;15.44;51.12
33697;BME280;20031;43.416;23.232;2024-02-21T08:58:46;100743.41;;;15.25;50.79
33697;BME280;20031;43.416;23.232;2024-02-21T09:01:12;100751.84;;;15.05;50.94
33697;BME280;20031;43.416;23.232;2024-02-21T09:03:37;100754.47;;;15.05;51.71
33697;BME280;20031;43.416;23.232;2024-02-21T09:06:07;100747.78;;;14.94;51.04
33697;BME280;20031;43.416;23.232;2024-02-21T09:08:34;100745.44;;;15.07;51.28
33697;BME280;20031;43.416;23.232;2024-02-21T09:11:00;100743.66;;;15.46;50.56
33697;BME280;20031;43.416;23.232;2024-02-21T09:13:29;100735.41;;;15.49;49.15
33697;BME280;20031;43.416;23.232;2024-02-21T09:15:55;100740.63;;;15.27;48.16
33697;BME280;20031;43.416;23.232;2024-02-21T09:18:20;100737.03;;;14.74;48.02
33697;BME280;20031;43.416;23.232;2024-02-21T09:20:46;100736.47;;;14.32;49.36
33697;BME280;20031;43.416;23.232;2024-02-21T09:23:13;100744.63;;;14.05;50.03
33697;BME280;20031;43.416;23.232;2024-02-21T09:25:39;100737.75;;;13.88;50.40
33697;BME280;20031;43.416;23.232;2024-02-21T09:28:05;100743.63;;;13.75;51.71
33697;BME280;20031;43.416;23.232;2024-02-21T09:30:31;100744.88;;;13.55;52.02
33697;BME280;20031;43.416;23.232;2024-02-21T09:32:57;100745.00;;;13.37;52.06
33697;BME280;20031;43.416;23.232;2024-02-21T09:35:25;100747.38;;;13.15;52.90
33697;BME280;20031;43.416;23.232;2024-02-21T09:37:52;100756.44;;;12.95;54.09
33697;BME280;20031;43.416;23.232;2024-02-21T09:40:17;100752.06;;;12.78;54.57
33697;BME280;20031;43.416;23.232;2024-02-21T09:42:43;100750.00;;;12.57;56.34
33697;BME280;20031;43.416;23.232;2024-02-21T09:45:21;100755.13;;;12.41;57.65
33697;BME280;20031;43.416;23.232;2024-02-21T09:50:50;100760.81;;;12.19;60.30
33697;BME280;20031;43.416;23.232;2024-02-21T09:53:18;100764.84;;;12.14;61.34
33697;BME280;20031;43.416;23.232;2024-02-21T09:55:45;100755.56;;;12.11;61.48
33697;BME280;20031;43.416;23.232;2024-02-21T09:58:12;100760.09;;;12.09;61.89
33697;BME280;20031;43.416;23.232;2024-02-21T10:00:38;100758.16;;;12.11;62.29
33697;BME280;20031;43.416;23.232;2024-02-21T10:03:03;100755.09;;;12.16;62.64
33697;BME280;20031;43.416;23.232;2024-02-21T10:05:38;100753.66;;;12.21;62.55
33697;BME280;20031;43.416;23.232;2024-02-21T10:08:04;100755.66;;;12.27;62.66
33697;BME280;20031;43.416;23.232;2024-02-21T10:10:41;100749.69;;;12.34;62.84
33697;BME280;20031;43.416;23.232;2024-02-21T10:13:07;100748.44;;;12.46;62.76
33697;BME280;20031;43.416;23.232;2024-02-21T10:15:33;100756.19;;;12.56;62.81
33697;BME280;20031;43.416;23.232;2024-02-21T10:18:00;100743.53;;;12.69;62.64
33697;BME280;20031;43.416;23.232;2024-02-21T10:20:26;100743.69;;;12.92;63.35
33697;BME280;20031;43.416;23.232;2024-02-21T10:23:06;100734.25;;;13.07;62.51
33697;BME280;20031;43.416;23.232;2024-02-21T10:25:35;100714.78;;;13.43;63.55
33697;BME280;20031;43.416;23.232;2024-02-21T10:28:03;100719.06;;;13.99;62.29
33697;BME280;20031;43.416;23.232;2024-02-21T10:30:29;100728.38;;;13.78;60.96
33697;BME280;20031;43.416;23.232;2024-02-21T10:32:54;100726.88;;;13.52;60.97
33697;BME280;20031;43.416;23.232;2024-02-21T10:35:30;100725.50;;;13.24;59.80
33697;BME280;20031;43.416;23.232;2024-02-21T10:37:56;100730.03;;;13.06;57.65
33697;BME280;20031;43.416;23.232;2024-02-21T10:40:26;100720.16;;;12.92;56.67
33697;BME280;20031;43.416;23.232;2024-02-21T10:42:57;100724.91;;;12.89;56.69
33697;BME280;20031;43.416;23.232;2024-02-21T10:45:44;100717.34;;;12.86;56.48
33697;BME280;20031;43.416;23.232;2024-02-21T10:48:12;100711.66;;;12.90;56.25
33697;BME280;20031;43.416;23.232;2024-02-21T10:50:53;100701.84;;;12.92;56.35
33697;BME280;20031;43.416;23.232;2024-02-21T10:53:37;100695.03;;;12.99;56.38
33697;BME280;20031;43.416;23.232;2024-02-21T10:56:33;100690.47;;;13.09;55.97
33697;BME280;20031;43.416;23.232;2024-02-21T10:59:05;100696.41;;;13.19;55.27
33697;BME280;20031;43.416;23.232;2024-02-21T11:01:31;100694.09;;;13.24;54.57
33697;BME280;20031;43.416;23.232;2024-02-21T11:04:01;100699.69;;;13.37;54.56
33697;BME280;20031;43.416;23.232;2024-02-21T11:06:28;100686.78;;;13.35;53.46
33697;BME280;20031;43.416;23.232;2024-02-21T11:09:08;100684.50;;;13.40;53.64
33697;BME280;20031;43.416;23.232;2024-02-21T11:11:34;100678.97;;;13.43;53.62
33697;BME280;20031;43.416;23.232;2024-02-21T11:16:41;100679.41;;;13.31;53.15
33697;BME280;20031;43.416;23.232;2024-02-21T11:19:09;100680.41;;;13.38;53.35
33697;BME280;20031;43.416;23.232;2024-02-21T11:21:37;100677.81;;;13.54;53.49
33697;BME280;20031;43.416;23.232;2024-02-21T11:24:05;100680.47;;;13.70;52.47
33697;BME280;20031;43.416;23.232;2024-02-21T11:26:32;100667.34;;;13.93;52.09
33697;BME280;20031;43.416;23.232;2024-02-21T11:29:01;100675.88;;;13.87;51.43
33697;BME280;20031;43.416;23.232;2024-02-21T11:31:42;100659.19;;;13.73;50.71
33697;BME280;20031;43.416;23.232;2024-02-21T11:34:11;100664.91;;;13.60;50.65
33697;BME280;20031;43.416;23.232;2024-02-21T11:36:50;100662.78;;;13.56;50.53
33697;BME280;20031;43.416;23.232;2024-02-21T11:39:23;100658.34;;;13.56;50.94
33697;BME280;20031;43.416;23.232;2024-02-21T11:42:05;100658.22;;;13.66;50.99
33697;BME280;20031;43.416;23.232;2024-02-21T11:44:33;100651.81;;;13.68;50.75
33697;BME280;20031;43.416;23.232;2024-02-21T11:46:59;100652.97;;;13.74;49.84
33697;BME280;20031;43.416;23.232;2024-02-21T11:49:26;100652.63;;;13.84;49.19
33697;BME280;20031;43.416;23.232;2024-02-21T11:52:03;100649.69;;;13.87;49.40
33697;BME280;20031;43.416;23.232;2024-02-21T11:54:30;100644.59;;;14.02;48.23
33697;BME280;20031;43.416;23.232;2024-02-21T11:56:56;100646.28;;;14.11;47.70
33697;BME280;20031;43.416;23.232;2024-02-21T11:59:21;100646.56;;;14.16;48.18
33697;BME280;20031;43.416;23.232;2024-02-21T12:01:48;100642.16;;;14.16;47.17
33697;BME280;20031;43.416;23.232;2024-02-21T12:04:13;100630.69;;;14.09;47.09
33697;BME280;20031;43.416;23.232;2024-02-21T12:06:39;100641.81;;;14.03;46.53
33697;BME280;20031;43.416;23.232;2024-02-21T12:09:08;100637.56;;;13.94;46.48
33697;BME280;20031;43.416;23.232;2024-02-21T12:11:36;100637.41;;;13.88;46.44
33697;BME280;20031;43.416;23.232;2024-02-21T12:14:03;100632.66;;;13.83;46.97
33697;BME280;20031;43.416;23.232;2024-02-21T12:16:30;100623.84;;;13.84;46.92
33697;BME280;20031;43.416;23.232;2024-02-21T12:18:57;100622.34;;;13.82;46.70
33697;BME280;20031;43.416;23.232;2024-02-21T12:21:26;100615.34;;;13.82;47.62
33697;BME280;20031;43.416;23.232;2024-02-21T12:23:55;100613.53;;;13.75;47.30
33697;BME280;20031;43.416;23.232;2024-02-21T12:26:21;100618.28;;;13.64;47.70
33697;BME280;20031;43.416;23.232;2024-02-21T12:28:47;100613.38;;;13.61;48.14
33697;BME280;20031;43.416;23.232;2024-02-21T12:31:13;100607.81;;;13.56;48.13
33697;BME280;20031;43.416;23.232;2024-02-21T12:33:39;100608.16;;;13.53;48.35
33697;BME280;20031;43.416;23.232;2024-02-21T12:36:04;100614.19;;;13.53;48.78
33697;BME280;20031;43.416;23.232;2024-02-21T12:38:30;100619.94;;;13.49;48.85
33697;BME280;20031;43.416;23.232;2024-02-21T12:40:56;100611.75;;;13.52;49.34
33697;BME280;20031;43.416;23.232;2024-02-21T12:43:23;100608.78;;;13.55;49.53
33697;BME280;20031;43.416;23.232;2024-02-21T12:45:48;100605.38;;;13.54;48.69
33697;BME280;20031;43.416;23.232;2024-02-21T12:48:14;100611.09;;;13.58;48.24
33697;BME280;20031;43.416;23.232;2024-02-21T12:50:42;100604.88;;;13.59;48.12